createdAt,value
2023-06-11T00:01:33.836Z,19.00
2023-06-11T00:04:02.074Z,19.10
2023-06-11T00:06:30.079Z,19.00
2023-06-11T00:08:57.989Z,19.00
2023-06-11T00:11:27.433Z,18.90
2023-06-11T00:13:55.353Z,18.90
2023-06-11T00:16:23.350Z,18.80
2023-06-11T00:18:51.327Z,18.70
2023-06-11T00:21:19.303Z,18.70
2023-06-11T00:23:47.265Z,18.70
2023-06-11T00:26:15.299Z,18.60
2023-06-11T00:28:44.596Z,18.70
2023-06-11T00:31:12.621Z,18.50
2023-06-11T00:33:40.638Z,18.50
2023-06-11T00:36:08.689Z,18.60
2023-06-11T00:38:36.794Z,18.60
2023-06-11T00:41:05.114Z,18.50
2023-06-11T00:43:33.038Z,18.60
2023-06-11T00:46:03.439Z,18.50
2023-06-11T00:48:31.641Z,18.60
2023-06-11T00:50:59.758Z,18.50
2023-06-11T00:53:27.774Z,18.50
2023-06-11T00:55:55.722Z,18.40
2023-06-11T00:58:23.813Z,18.40
2023-06-11T01:00:58.527Z,18.40
2023-06-11T01:03:29.634Z,18.40
2023-06-11T01:06:03.431Z,18.20
2023-06-11T01:08:34.257Z,18.20
2023-06-11T01:11:02.936Z,18.20
2023-06-11T01:13:31.135Z,18.20
2023-06-11T01:16:03.156Z,18.20
2023-06-11T01:18:41.457Z,18.10
2023-06-11T01:21:14.292Z,18.10
2023-06-11T01:23:44.730Z,18.00
2023-06-11T01:26:29.436Z,18.00
2023-06-11T01:29:02.173Z,18.00
2023-06-11T01:31:34.066Z,17.80
2023-06-11T01:34:02.639Z,17.80
2023-06-11T01:36:35.473Z,17.80
2023-06-11T01:39:03.840Z,17.60
2023-06-11T01:41:32.211Z,17.60
2023-06-11T01:44:01.615Z,17.60
2023-06-11T01:46:29.789Z,17.50
2023-06-11T01:48:57.733Z,17.50
2023-06-11T01:51:26.124Z,17.50
2023-06-11T01:53:55.923Z,17.40
2023-06-11T01:56:23.958Z,17.40
2023-06-11T01:58:51.912Z,17.40
2023-06-11T02:01:21.627Z,17.40
2023-06-11T02:03:49.738Z,17.40
2023-06-11T02:06:17.832Z,17.30
2023-06-11T02:12:33.226Z,17.30
2023-06-11T02:15:01.224Z,17.20
2023-06-11T02:17:30.650Z,17.30
2023-06-11T02:19:58.618Z,17.20
2023-06-11T02:22:26.611Z,17.30
2023-06-11T02:24:54.626Z,17.20
2023-06-11T02:27:22.621Z,17.20
2023-06-11T02:29:50.572Z,17.20
2023-06-11T02:32:18.652Z,17.20
2023-06-11T02:34:48.012Z,17.20
2023-06-11T02:37:16.091Z,17.20
2023-06-11T02:39:44.033Z,17.10
2023-06-11T02:42:12.147Z,17.10
2023-06-11T02:44:40.109Z,17.10
2023-06-11T02:47:08.575Z,17.00
2023-06-11T02:49:36.569Z,17.10
2023-06-11T02:52:06.707Z,17.10
2023-06-11T02:54:34.766Z,17.10
2023-06-11T02:57:02.670Z,17.00
2023-06-11T02:59:30.619Z,17.10
2023-06-11T03:01:58.581Z,17.10
2023-06-11T03:04:26.651Z,17.10
2023-06-11T03:06:54.603Z,17.10
2023-06-11T03:09:25.264Z,17.10
2023-06-11T03:11:53.427Z,17.20
2023-06-11T03:14:22.617Z,17.20
2023-06-11T03:16:50.612Z,17.00
2023-06-11T03:19:19.170Z,17.00
2023-06-11T03:21:47.155Z,17.00
2023-06-11T03:24:15.185Z,17.00
2023-06-11T03:26:44.573Z,17.10
2023-06-11T03:29:12.499Z,16.90
2023-06-11T03:31:41.542Z,16.90
2023-06-11T03:34:09.568Z,16.90
2023-06-11T03:36:38.166Z,16.90
2023-06-11T03:39:06.332Z,17.00
2023-06-11T03:41:34.240Z,17.00
2023-06-11T03:44:03.556Z,16.90
2023-06-11T03:46:31.482Z,16.90
2023-06-11T03:48:59.522Z,16.90
2023-06-11T03:51:27.561Z,16.90
2023-06-11T03:53:55.523Z,16.90
2023-06-11T03:56:23.449Z,17.00
2023-06-11T03:58:51.388Z,17.10
2023-06-11T04:01:21.710Z,17.10
2023-06-11T04:03:49.782Z,17.30
2023-06-11T04:06:19.478Z,17.40
2023-06-11T04:08:47.427Z,17.50
2023-06-11T04:11:15.504Z,17.50
2023-06-11T04:13:43.602Z,17.70
2023-06-11T04:16:11.538Z,17.80
2023-06-11T04:18:40.830Z,17.90
2023-06-11T04:21:08.798Z,18.00
2023-06-11T04:23:37.332Z,18.00
2023-06-11T04:26:05.286Z,18.10
2023-06-11T04:28:33.235Z,18.20
2023-06-11T04:31:02.846Z,18.30
2023-06-11T04:33:33.652Z,18.40
2023-06-11T04:36:06.446Z,18.50
2023-06-11T04:38:34.461Z,18.70
2023-06-11T04:41:03.609Z,18.90
2023-06-11T04:43:34.265Z,18.90
2023-06-11T04:46:04.938Z,19.00
2023-06-11T04:48:34.029Z,19.10
2023-06-11T04:51:05.329Z,19.20
2023-06-11T04:53:38.151Z,19.30
2023-06-11T04:56:06.325Z,19.40
2023-06-11T04:58:34.234Z,19.60
2023-06-11T05:01:02.308Z,19.80
2023-06-11T05:03:33.002Z,19.90
2023-06-11T05:06:03.245Z,20.10
2023-06-11T05:08:33.572Z,20.20
2023-06-11T05:11:01.602Z,20.30
2023-06-11T05:13:29.661Z,20.40
2023-06-11T05:15:59.122Z,20.50
2023-06-11T05:18:28.045Z,20.70
2023-06-11T05:20:56.069Z,20.70
2023-06-11T05:23:29.594Z,20.80
2023-06-11T05:26:02.571Z,20.90
2023-06-11T05:28:30.699Z,21.00
2023-06-11T05:31:00.517Z,21.00
2023-06-11T05:33:29.392Z,21.10
2023-06-11T05:35:58.708Z,21.20
2023-06-11T05:38:29.919Z,21.30
2023-06-11T05:40:59.309Z,21.70
2023-06-11T05:43:27.725Z,21.70
2023-06-11T05:45:57.185Z,21.80
2023-06-11T05:48:27.968Z,21.90
2023-06-11T05:50:55.973Z,22.10
2023-06-11T05:53:23.931Z,22.30
2023-06-11T05:55:54.539Z,22.40
2023-06-11T05:58:24.773Z,22.60
2023-06-11T06:00:52.851Z,22.60
2023-06-11T06:03:21.057Z,22.80
2023-06-11T06:05:49.050Z,22.70
2023-06-11T06:08:17.053Z,22.90
2023-06-11T06:10:44.988Z,23.00
2023-06-11T06:13:12.953Z,22.90
2023-06-11T06:15:42.984Z,22.90
2023-06-11T06:18:11.457Z,22.90
2023-06-11T06:20:39.503Z,23.10
2023-06-11T06:23:07.461Z,23.00
2023-06-11T06:25:38.618Z,23.10
2023-06-11T06:28:07.434Z,23.20
2023-06-11T06:30:35.570Z,23.30
2023-06-11T06:33:05.162Z,23.30
2023-06-11T06:35:33.741Z,23.50
2023-06-11T06:38:01.795Z,23.40
2023-06-11T06:40:29.880Z,23.60
2023-06-11T06:42:58.128Z,23.70
2023-06-11T06:45:26.093Z,23.70
2023-06-11T06:47:54.264Z,23.60
2023-06-11T06:50:23.736Z,23.80
2023-06-11T06:52:51.693Z,24.00
2023-06-11T06:55:19.673Z,23.90
2023-06-11T06:57:47.620Z,24.10
2023-06-11T07:00:17.181Z,24.20
2023-06-11T07:02:45.305Z,24.40
2023-06-11T07:05:13.908Z,24.50
2023-06-11T07:07:43.822Z,24.60
2023-06-11T07:10:12.908Z,24.80
2023-06-11T07:12:41.041Z,24.70
2023-06-11T07:15:09.877Z,24.80
2023-06-11T07:17:37.883Z,24.80
2023-06-11T07:20:08.330Z,24.90
2023-06-11T07:22:36.489Z,25.00
2023-06-11T07:25:07.901Z,25.10
2023-06-11T07:27:36.016Z,25.40
2023-06-11T07:30:04.353Z,25.50
2023-06-11T07:32:32.299Z,25.60
2023-06-11T07:35:00.244Z,25.70
2023-06-11T07:37:28.153Z,26.00
2023-06-11T07:39:56.093Z,25.90
2023-06-11T07:42:25.533Z,26.00
2023-06-11T07:44:53.565Z,26.00
2023-06-11T07:47:21.810Z,26.20
2023-06-11T07:49:51.893Z,26.20
2023-06-11T07:52:19.947Z,26.30
2023-06-11T07:54:47.937Z,26.30
2023-06-11T07:57:16.838Z,26.40
2023-06-11T07:59:46.314Z,26.50
2023-06-11T08:02:14.480Z,26.50
2023-06-11T08:04:43.248Z,26.70
2023-06-11T08:07:11.447Z,26.50
2023-06-11T08:09:39.638Z,26.70
2023-06-11T08:12:09.667Z,26.90
2023-06-11T08:14:38.416Z,27.00
2023-06-11T08:17:09.297Z,27.00
2023-06-11T08:19:37.287Z,27.00
2023-06-11T08:22:06.825Z,27.00
2023-06-11T08:24:34.761Z,27.30
2023-06-11T08:27:03.861Z,27.50
2023-06-11T08:29:32.085Z,27.60
2023-06-11T08:32:00.192Z,27.60
2023-06-11T08:34:29.763Z,27.80
2023-06-11T08:36:58.413Z,28.00
2023-06-11T08:39:26.885Z,28.00
2023-06-11T08:41:55.328Z,28.00
2023-06-11T08:44:26.938Z,28.10
2023-06-11T08:46:57.593Z,28.20
2023-06-11T08:49:25.781Z,28.10
2023-06-11T08:51:56.893Z,28.20
2023-06-11T08:54:27.037Z,28.20
2023-06-11T08:56:55.489Z,28.40
2023-06-11T08:59:23.700Z,28.50
2023-06-11T09:01:53.447Z,28.50
2023-06-11T09:04:22.585Z,28.50
2023-06-11T09:06:51.997Z,28.50
2023-06-11T09:09:21.473Z,28.70
2023-06-11T09:11:49.640Z,28.60
2023-06-11T09:14:17.624Z,28.90
2023-06-11T09:16:46.795Z,28.90
2023-06-11T09:19:16.842Z,29.00
2023-06-11T09:21:51.074Z,29.10
2023-06-11T09:24:19.922Z,29.20
2023-06-11T09:26:54.330Z,29.20
2023-06-11T09:29:22.641Z,29.20
2023-06-11T09:31:50.786Z,29.00
2023-06-11T09:34:23.320Z,29.10
2023-06-11T09:36:52.955Z,29.00
2023-06-11T09:39:21.682Z,29.00
2023-06-11T09:41:52.281Z,29.10
2023-06-11T09:44:20.463Z,29.30
2023-06-11T09:46:48.693Z,29.20
2023-06-11T09:49:17.777Z,29.20
2023-06-11T09:51:46.075Z,29.20
2023-06-11T09:54:14.657Z,29.30
2023-06-11T09:56:43.792Z,29.40
2023-06-11T09:59:14.119Z,29.40
2023-06-11T10:01:44.665Z,29.50
2023-06-11T10:04:12.727Z,29.50
2023-06-11T10:06:46.593Z,29.50
2023-06-11T10:09:16.649Z,29.50
2023-06-11T10:11:46.444Z,29.80
2023-06-11T10:14:18.104Z,29.80
2023-06-11T10:16:51.603Z,29.70
2023-06-11T10:19:20.489Z,29.80
2023-06-11T10:21:50.758Z,29.60
2023-06-11T10:24:25.671Z,29.90
2023-06-11T10:27:11.669Z,29.80
2023-06-11T10:29:42.722Z,29.70
2023-06-11T10:32:18.579Z,30.00
2023-06-11T10:34:47.420Z,30.30
2023-06-11T10:37:15.773Z,30.30
2023-06-11T10:39:53.093Z,30.20
2023-06-11T10:42:25.059Z,30.10
2023-06-11T10:44:58.647Z,30.20
2023-06-11T10:47:27.205Z,30.20
2023-06-11T10:50:06.747Z,30.30
2023-06-11T10:52:45.516Z,30.30
2023-06-11T10:55:14.325Z,30.40
2023-06-11T10:57:43.096Z,30.50
2023-06-11T11:00:14.757Z,30.50
2023-06-11T11:02:43.164Z,30.60
2023-06-11T11:05:12.499Z,30.50
2023-06-11T11:07:40.878Z,30.50
2023-06-11T11:10:09.910Z,30.70
2023-06-11T11:12:40.721Z,30.80
2023-06-11T11:15:09.596Z,30.90
2023-06-11T11:17:41.289Z,30.90
2023-06-11T11:20:10.323Z,31.00
2023-06-11T11:22:38.781Z,30.90
2023-06-11T11:25:08.804Z,31.10
2023-06-11T11:27:39.010Z,31.00
2023-06-11T11:30:08.498Z,31.00
2023-06-11T11:32:38.303Z,30.90
2023-06-11T11:35:08.083Z,30.80
2023-06-11T11:37:36.445Z,30.90
2023-06-11T11:40:08.706Z,30.90
2023-06-11T11:42:46.943Z,31.20
2023-06-11T11:45:15.352Z,31.30
2023-06-11T11:47:47.611Z,31.30
2023-06-11T11:50:23.909Z,31.50
2023-06-11T11:53:05.260Z,31.40
2023-06-11T11:55:35.044Z,31.40
2023-06-11T11:58:05.160Z,31.40
2023-06-11T12:00:33.203Z,31.00
2023-06-11T12:03:09.455Z,31.10
2023-06-11T12:05:37.684Z,31.10
2023-06-11T12:08:06.414Z,31.20
2023-06-11T12:10:34.476Z,31.30
2023-06-11T12:13:03.165Z,31.40
2023-06-11T12:15:31.176Z,31.60
2023-06-11T12:17:59.180Z,31.70
2023-06-11T12:20:29.612Z,31.60
2023-06-11T12:22:57.628Z,31.70
2023-06-11T12:25:26.792Z,31.90
2023-06-11T12:27:55.539Z,32.00
2023-06-11T12:30:23.749Z,31.90
2023-06-11T12:32:52.745Z,32.00
2023-06-11T12:35:21.079Z,32.10
2023-06-11T12:37:51.205Z,32.20
2023-06-11T12:40:19.387Z,32.20
2023-06-11T12:42:47.398Z,32.40
2023-06-11T12:45:15.949Z,32.20
2023-06-11T12:47:44.167Z,32.10
2023-06-11T12:50:14.178Z,32.10
2023-06-11T12:52:46.078Z,32.20
2023-06-11T12:55:15.983Z,32.30
2023-06-11T12:57:43.973Z,32.20
2023-06-11T13:00:13.866Z,32.30
2023-06-11T13:02:42.432Z,32.30
2023-06-11T13:05:10.846Z,32.40
2023-06-11T13:07:38.952Z,32.30
2023-06-11T13:10:07.828Z,32.30
2023-06-11T13:12:37.356Z,32.40
2023-06-11T13:15:06.266Z,32.60
2023-06-11T13:17:34.256Z,32.90
2023-06-11T13:20:02.222Z,32.90
2023-06-11T13:22:30.285Z,32.80
2023-06-11T13:24:58.385Z,32.60
2023-06-11T13:27:26.360Z,32.40
2023-06-11T13:29:55.746Z,32.30
2023-06-11T13:32:24.468Z,32.40
2023-06-11T13:34:52.574Z,32.50
2023-06-11T13:37:21.440Z,32.60
2023-06-11T13:39:49.459Z,32.60
2023-06-11T13:42:17.474Z,32.50
2023-06-11T13:44:45.907Z,32.50
2023-06-11T13:47:15.458Z,32.40
2023-06-11T13:49:43.469Z,32.70
2023-06-11T13:52:11.437Z,32.70
2023-06-11T13:54:40.186Z,32.80
2023-06-11T13:57:08.470Z,33.00
2023-06-11T13:59:36.493Z,32.90
2023-06-11T14:02:04.697Z,32.70
2023-06-11T14:04:34.029Z,32.50
2023-06-11T14:07:04.313Z,32.50
2023-06-11T14:09:33.157Z,32.60
2023-06-11T14:12:01.090Z,32.50
2023-06-11T14:14:32.385Z,32.70
2023-06-11T14:17:02.963Z,32.50
2023-06-11T14:19:31.206Z,32.40
2023-06-11T14:22:00.529Z,32.50
2023-06-11T14:24:28.500Z,32.50
2023-06-11T14:26:56.764Z,32.40
2023-06-11T14:29:24.728Z,32.30
2023-06-11T14:31:59.870Z,32.20
2023-06-11T14:34:27.909Z,32.30
2023-06-11T14:36:55.916Z,32.10
2023-06-11T14:39:25.704Z,32.00
2023-06-11T14:41:53.660Z,32.00
2023-06-11T14:44:21.658Z,31.90
2023-06-11T14:46:49.879Z,31.80
2023-06-11T14:49:21.007Z,31.90
2023-06-11T14:51:49.309Z,32.00
2023-06-11T14:54:17.488Z,31.90
2023-06-11T14:56:46.916Z,31.60
2023-06-11T14:59:15.182Z,31.50
2023-06-11T15:01:43.600Z,31.40
2023-06-11T15:04:12.629Z,31.40
2023-06-11T15:06:42.127Z,31.30
2023-06-11T15:09:10.461Z,31.60
2023-06-11T15:11:38.616Z,31.70
2023-06-11T15:14:07.939Z,32.00
2023-06-11T15:16:35.911Z,32.20
2023-06-11T15:19:03.915Z,32.30
2023-06-11T15:21:32.191Z,32.40
2023-06-11T15:24:00.235Z,32.60
2023-06-11T15:26:28.217Z,32.90
2023-06-11T15:28:56.701Z,33.60
2023-06-11T15:31:26.089Z,34.20
2023-06-11T15:33:54.104Z,34.70
2023-06-11T15:36:22.093Z,35.10
2023-06-11T15:38:50.085Z,35.50
2023-06-11T15:41:18.304Z,35.50
2023-06-11T15:43:46.322Z,35.40
2023-06-11T15:46:14.410Z,35.40
2023-06-11T15:48:43.939Z,35.00
2023-06-11T15:51:11.897Z,34.70
2023-06-11T15:53:39.863Z,34.30
2023-06-11T15:56:07.870Z,34.70
2023-06-11T15:58:35.862Z,34.70
2023-06-11T16:01:03.705Z,35.10
2023-06-11T16:03:31.818Z,35.40
2023-06-11T16:06:01.306Z,35.10
2023-06-11T16:08:29.405Z,35.40
2023-06-11T16:10:57.370Z,34.80
2023-06-11T16:13:25.349Z,34.80
2023-06-11T16:15:53.337Z,34.90
2023-06-11T16:18:21.299Z,34.40
2023-06-11T16:20:49.320Z,34.40
2023-06-11T16:23:20.268Z,34.80
2023-06-11T16:25:48.259Z,35.40
2023-06-11T16:28:16.285Z,35.40
2023-06-11T16:30:44.281Z,35.30
2023-06-11T16:33:12.330Z,36.10
2023-06-11T16:35:40.336Z,35.60
2023-06-11T16:38:08.267Z,35.30
2023-06-11T16:40:37.746Z,34.90
2023-06-11T16:43:05.703Z,35.20
2023-06-11T16:45:33.654Z,35.40
2023-06-11T16:48:01.725Z,35.10
2023-06-11T16:50:29.852Z,34.80
2023-06-11T16:52:57.808Z,34.80
2023-06-11T16:55:25.815Z,34.50
2023-06-11T16:57:57.949Z,34.10
2023-06-11T17:00:26.409Z,34.00
2023-06-11T17:02:56.120Z,34.00
2023-06-11T17:05:24.334Z,33.90
2023-06-11T17:07:58.270Z,33.50
2023-06-11T17:10:30.258Z,33.80
2023-06-11T17:12:59.755Z,34.10
2023-06-11T17:15:28.105Z,34.00
2023-06-11T17:17:56.247Z,33.70
2023-06-11T17:20:24.311Z,33.80
2023-06-11T17:22:52.682Z,33.50
2023-06-11T17:25:22.270Z,33.40
2023-06-11T17:27:50.352Z,33.10
2023-06-11T17:30:20.958Z,33.00
2023-06-11T17:32:48.989Z,33.00
2023-06-11T17:35:17.142Z,32.80
2023-06-11T17:37:45.194Z,32.90
2023-06-11T17:40:16.590Z,33.20
2023-06-11T17:42:46.214Z,33.20
2023-06-11T17:45:14.389Z,33.10
2023-06-11T17:47:43.870Z,32.60
2023-06-11T17:50:13.197Z,32.10
2023-06-11T17:52:43.754Z,32.00
2023-06-11T17:55:14.491Z,31.90
2023-06-11T17:57:43.665Z,31.70
2023-06-11T18:00:13.104Z,31.70
2023-06-11T18:02:41.250Z,31.50
2023-06-11T18:05:11.444Z,31.60
2023-06-11T18:07:42.245Z,31.40
2023-06-11T18:10:12.192Z,31.40
2023-06-11T18:12:40.216Z,31.50
2023-06-11T18:15:26.649Z,31.70
2023-06-11T18:17:57.278Z,31.30
2023-06-11T18:20:27.890Z,30.90
2023-06-11T18:22:56.149Z,30.40
2023-06-11T18:25:24.350Z,30.10
2023-06-11T18:27:52.428Z,29.50
2023-06-11T18:30:21.797Z,28.90
2023-06-11T18:32:50.218Z,28.50
2023-06-11T18:35:19.230Z,28.10
2023-06-11T18:37:49.260Z,27.90
2023-06-11T18:40:17.357Z,27.70
2023-06-11T18:42:45.379Z,27.40
2023-06-11T18:45:13.452Z,27.20
2023-06-11T18:47:42.561Z,27.10
2023-06-11T18:50:12.344Z,27.00
2023-06-11T18:52:40.963Z,26.90
2023-06-11T18:55:11.135Z,26.80
2023-06-11T18:57:39.081Z,26.70
2023-06-11T19:00:08.951Z,26.50
2023-06-11T19:02:37.147Z,26.40
2023-06-11T19:05:07.685Z,26.20
2023-06-11T19:07:37.790Z,26.20
2023-06-11T19:10:06.531Z,26.10
2023-06-11T19:12:35.905Z,26.10
2023-06-11T19:15:04.000Z,26.00
2023-06-11T19:17:31.992Z,25.80
2023-06-11T19:20:00.124Z,25.80
2023-06-11T19:22:28.221Z,25.60
2023-06-11T19:24:56.284Z,25.50
2023-06-11T19:27:29.175Z,25.50
2023-06-11T19:29:58.573Z,25.30
2023-06-11T19:32:26.543Z,25.10
2023-06-11T19:34:54.562Z,25.10
2023-06-11T19:37:22.604Z,24.80
2023-06-11T19:39:52.476Z,24.70
2023-06-11T19:42:20.565Z,24.60
2023-06-11T19:44:48.564Z,24.50
2023-06-11T19:47:18.029Z,24.40
2023-06-11T19:49:46.115Z,24.30
2023-06-11T19:52:14.178Z,24.10
2023-06-11T19:54:51.207Z,24.00
2023-06-11T19:57:20.506Z,23.80
2023-06-11T19:59:49.609Z,23.70
2023-06-11T20:02:20.400Z,23.70
2023-06-11T20:04:48.553Z,23.50
2023-06-11T20:07:17.163Z,23.40
2023-06-11T20:09:46.407Z,23.30
2023-06-11T20:12:14.570Z,23.10
2023-06-11T20:14:42.568Z,22.90
2023-06-11T20:17:10.682Z,23.00
2023-06-11T20:19:40.444Z,22.80
2023-06-11T20:22:08.784Z,22.70
2023-06-11T20:24:36.790Z,22.60
2023-06-11T20:27:05.095Z,22.60
2023-06-11T20:29:33.090Z,22.40
2023-06-11T20:32:01.140Z,22.30
2023-06-11T20:34:29.134Z,22.30
2023-06-11T20:36:58.506Z,22.20
2023-06-11T20:39:26.430Z,22.10
2023-06-11T20:41:54.823Z,22.00
2023-06-11T20:44:22.779Z,22.00
2023-06-11T20:46:51.312Z,21.90
2023-06-11T20:49:19.412Z,21.80
2023-06-11T20:51:47.332Z,21.80
2023-06-11T20:54:16.693Z,21.60
2023-06-11T20:56:44.688Z,21.60
2023-06-11T20:59:12.612Z,21.60
2023-06-11T21:01:40.659Z,21.50
2023-06-11T21:04:08.792Z,21.50
2023-06-11T21:06:38.780Z,21.40
2023-06-11T21:09:07.239Z,21.40
2023-06-11T21:11:36.648Z,21.40
2023-06-11T21:14:13.723Z,21.20
2023-06-11T21:16:43.098Z,21.20
2023-06-11T21:19:11.231Z,21.20
2023-06-11T21:21:39.182Z,21.20
2023-06-11T21:24:07.788Z,21.10
2023-06-11T21:26:37.359Z,21.00
2023-06-11T21:29:06.007Z,21.10
2023-06-11T21:31:34.380Z,21.00
2023-06-11T21:34:02.454Z,20.90
2023-06-11T21:36:30.496Z,20.80
2023-06-11T21:38:58.482Z,20.80
2023-06-11T21:41:26.461Z,20.70
2023-06-11T21:43:55.936Z,20.70
2023-06-11T21:46:23.997Z,20.50
2023-06-11T21:48:52.047Z,20.60
2023-06-11T21:51:21.108Z,20.50
2023-06-11T21:53:49.072Z,20.40
2023-06-11T21:56:17.022Z,20.30
2023-06-11T21:58:44.942Z,20.30
2023-06-11T22:01:14.279Z,20.30
2023-06-11T22:03:42.273Z,20.10
2023-06-11T22:06:10.650Z,20.10
2023-06-11T22:08:38.817Z,20.10
2023-06-11T22:11:07.029Z,20.00
2023-06-11T22:13:34.996Z,20.00
2023-06-11T22:16:03.178Z,20.00
2023-06-11T22:18:33.944Z,19.90
2023-06-11T22:21:02.464Z,19.90
2023-06-11T22:23:48.781Z,19.80
2023-06-11T22:26:19.022Z,19.70
2023-06-11T22:28:47.002Z,19.70
2023-06-11T22:31:15.094Z,19.70
2023-06-11T22:33:45.483Z,19.60
2023-06-11T22:36:13.498Z,19.60
2023-06-11T22:38:41.440Z,19.60
2023-06-11T22:41:10.172Z,19.50
2023-06-11T22:43:38.226Z,19.50
2023-06-11T22:46:06.342Z,19.40
2023-06-11T22:48:34.356Z,19.30
2023-06-11T22:51:10.866Z,19.30
2023-06-11T22:53:39.105Z,19.20
2023-06-11T22:56:07.869Z,19.20
2023-06-11T22:58:36.048Z,19.10
2023-06-11T23:01:04.210Z,19.20
2023-06-11T23:03:32.587Z,19.00
2023-06-11T23:06:00.673Z,19.00
2023-06-11T23:08:30.120Z,19.00
2023-06-11T23:10:58.016Z,18.90
2023-06-11T23:13:26.097Z,18.90
2023-06-11T23:15:54.125Z,18.80
2023-06-11T23:18:24.994Z,18.70
2023-06-11T23:20:54.322Z,18.70
2023-06-11T23:23:23.284Z,18.70
2023-06-11T23:25:53.730Z,18.60
2023-06-11T23:28:23.633Z,18.70
2023-06-11T23:30:53.292Z,18.60
2023-06-11T23:33:21.560Z,18.50
2023-06-11T23:35:49.572Z,18.50
2023-06-11T23:38:17.958Z,18.40
2023-06-11T23:40:46.567Z,18.30
2023-06-11T23:43:15.899Z,18.30
2023-06-11T23:45:43.953Z,18.20
2023-06-11T23:48:11.925Z,18.20
2023-06-11T23:50:42.755Z,18.10
2023-06-11T23:53:11.749Z,18.00
2023-06-11T23:55:39.702Z,18.00
2023-06-11T23:58:20.015Z,17.90
